sensor_id;sensor_type;location;lat;lon;timestamp;P1;durP1;ratioP1;P2;durP2;ratioP2
23720;SDS011;42950;52.134;5.578;2022-09-09T00:04:27;1.70;;;1.15;;
23720;SDS011;42950;52.134;5.578;2022-09-09T00:09:47;1.75;;;1.38;;
23720;SDS011;42950;52.134;5.578;2022-09-09T00:15:05;1.95;;;1.25;;
23720;SDS011;42950;52.134;5.578;2022-09-09T00:20:35;3.08;;;1.30;;
23720;SDS011;42950;52.134;5.578;2022-09-09T00:23:24;2.33;;;1.20;;
23720;SDS011;42950;52.134;5.578;2022-09-09T00:28:31;1.83;;;1.00;;
23720;SDS011;42950;52.134;5.578;2022-09-09T00:31:15;1.40;;;1.30;;
23720;SDS011;42950;52.134;5.578;2022-09-09T00:33:45;1.58;;;1.20;;
23720;SDS011;42950;52.134;5.578;2022-09-09T00:36:14;2.42;;;1.50;;
23720;SDS011;42950;52.134;5.578;2022-09-09T00:38:52;3.85;;;1.70;;
23720;SDS011;42950;52.134;5.578;2022-09-09T00:47:04;2.70;;;2.00;;
23720;SDS011;42950;52.134;5.578;2022-09-09T00:52:23;3.33;;;2.30;;
23720;SDS011;42950;52.134;5.578;2022-09-09T00:57:52;3.70;;;2.42;;
23720;SDS011;42950;52.134;5.578;2022-09-09T01:05:27;5.43;;;3.05;;
23720;SDS011;42950;52.134;5.578;2022-09-09T01:08:05;4.32;;;2.63;;
23720;SDS011;42950;52.134;5.578;2022-09-09T01:10:42;5.43;;;3.28;;
23720;SDS011;42950;52.134;5.578;2022-09-09T01:13:23;5.20;;;3.22;;
23720;SDS011;42950;52.134;5.578;2022-09-09T01:15:53;3.35;;;3.03;;
23720;SDS011;42950;52.134;5.578;2022-09-09T01:18:20;4.78;;;2.90;;
23720;SDS011;42950;52.134;5.578;2022-09-09T01:24:20;5.25;;;3.60;;
23720;SDS011;42950;52.134;5.578;2022-09-09T01:26:44;4.38;;;3.15;;
23720;SDS011;42950;52.134;5.578;2022-09-09T01:29:15;5.72;;;2.97;;
23720;SDS011;42950;52.134;5.578;2022-09-09T01:31:51;3.42;;;3.13;;
23720;SDS011;42950;52.134;5.578;2022-09-09T01:34:27;5.15;;;3.10;;
23720;SDS011;42950;52.134;5.578;2022-09-09T01:37:01;5.72;;;3.28;;
23720;SDS011;42950;52.134;5.578;2022-09-09T01:39:32;5.15;;;3.22;;
23720;SDS011;42950;52.134;5.578;2022-09-09T01:42:00;3.88;;;3.03;;
23720;SDS011;42950;52.134;5.578;2022-09-09T01:44:28;3.20;;;2.28;;
23720;SDS011;42950;52.134;5.578;2022-09-09T01:46:55;3.70;;;3.00;;
23720;SDS011;42950;52.134;5.578;2022-09-09T01:49:20;4.47;;;3.22;;
23720;SDS011;42950;52.134;5.578;2022-09-09T01:51:48;3.88;;;3.03;;
23720;SDS011;42950;52.134;5.578;2022-09-09T01:54:17;4.13;;;2.80;;
23720;SDS011;42950;52.134;5.578;2022-09-09T01:56:48;3.60;;;2.60;;
23720;SDS011;42950;52.134;5.578;2022-09-09T01:59:24;5.10;;;3.20;;
23720;SDS011;42950;52.134;5.578;2022-09-09T02:04:52;5.90;;;2.95;;
23720;SDS011;42950;52.134;5.578;2022-09-09T02:07:30;3.25;;;2.88;;
23720;SDS011;42950;52.134;5.578;2022-09-09T02:10:20;3.83;;;2.92;;
23720;SDS011;42950;52.134;5.578;2022-09-09T02:12:50;3.50;;;3.10;;
23720;SDS011;42950;52.134;5.578;2022-09-09T02:15:26;5.03;;;2.95;;
23720;SDS011;42950;52.134;5.578;2022-09-09T02:18:14;5.45;;;3.33;;
23720;SDS011;42950;52.134;5.578;2022-09-09T02:20:43;6.13;;;3.35;;
23720;SDS011;42950;52.134;5.578;2022-09-09T02:23:13;4.68;;;3.83;;
23720;SDS011;42950;52.134;5.578;2022-09-09T02:25:40;4.55;;;4.00;;
23720;SDS011;42950;52.134;5.578;2022-09-09T02:28:08;6.35;;;4.38;;
23720;SDS011;42950;52.134;5.578;2022-09-09T02:30:36;7.32;;;4.60;;
23720;SDS011;42950;52.134;5.578;2022-09-09T02:33:03;5.10;;;3.95;;
23720;SDS011;42950;52.134;5.578;2022-09-09T02:35:32;4.60;;;4.03;;
23720;SDS011;42950;52.134;5.578;2022-09-09T02:38:02;5.03;;;4.38;;
23720;SDS011;42950;52.134;5.578;2022-09-09T02:40:31;5.20;;;4.70;;
23720;SDS011;42950;52.134;5.578;2022-09-09T02:42:57;5.47;;;4.80;;
23720;SDS011;42950;52.134;5.578;2022-09-09T02:45:27;4.90;;;4.10;;
23720;SDS011;42950;52.134;5.578;2022-09-09T02:50:46;4.65;;;3.92;;
23720;SDS011;42950;52.134;5.578;2022-09-09T02:56:25;4.53;;;3.53;;
23720;SDS011;42950;52.134;5.578;2022-09-09T02:58:54;5.22;;;4.35;;
23720;SDS011;42950;52.134;5.578;2022-09-09T03:01:20;5.65;;;4.22;;
23720;SDS011;42950;52.134;5.578;2022-09-09T03:03:46;7.22;;;4.40;;
23720;SDS011;42950;52.134;5.578;2022-09-09T03:06:12;7.50;;;3.88;;
23720;SDS011;42950;52.134;5.578;2022-09-09T03:08:38;5.95;;;4.20;;
23720;SDS011;42950;52.134;5.578;2022-09-09T03:11:03;6.65;;;4.05;;
23720;SDS011;42950;52.134;5.578;2022-09-09T03:13:29;5.40;;;4.90;;
23720;SDS011;42950;52.134;5.578;2022-09-09T03:15:55;6.25;;;4.55;;
23720;SDS011;42950;52.134;5.578;2022-09-09T03:18:21;4.05;;;3.70;;
23720;SDS011;42950;52.134;5.578;2022-09-09T03:20:46;5.05;;;4.20;;
23720;SDS011;42950;52.134;5.578;2022-09-09T03:23:16;4.40;;;3.78;;
23720;SDS011;42950;52.134;5.578;2022-09-09T03:25:51;5.20;;;3.95;;
23720;SDS011;42950;52.134;5.578;2022-09-09T03:28:17;6.68;;;4.82;;
23720;SDS011;42950;52.134;5.578;2022-09-09T03:30:43;6.78;;;3.97;;
23720;SDS011;42950;52.134;5.578;2022-09-09T03:33:10;4.82;;;4.28;;
23720;SDS011;42950;52.134;5.578;2022-09-09T03:35:36;5.53;;;4.45;;
23720;SDS011;42950;52.134;5.578;2022-09-09T03:38:01;4.75;;;4.35;;
23720;SDS011;42950;52.134;5.578;2022-09-09T03:40:27;4.93;;;4.30;;
23720;SDS011;42950;52.134;5.578;2022-09-09T03:42:53;6.55;;;4.35;;
23720;SDS011;42950;52.134;5.578;2022-09-09T03:45:18;9.15;;;4.10;;
23720;SDS011;42950;52.134;5.578;2022-09-09T03:47:44;9.23;;;4.38;;
23720;SDS011;42950;52.134;5.578;2022-09-09T03:50:10;6.00;;;4.20;;
23720;SDS011;42950;52.134;5.578;2022-09-09T03:52:39;5.90;;;4.47;;
23720;SDS011;42950;52.134;5.578;2022-09-09T03:55:06;8.18;;;4.45;;
23720;SDS011;42950;52.134;5.578;2022-09-09T03:57:33;5.43;;;4.28;;
23720;SDS011;42950;52.134;5.578;2022-09-09T04:00:05;6.07;;;4.28;;
23720;SDS011;42950;52.134;5.578;2022-09-09T04:02:32;7.03;;;5.03;;
23720;SDS011;42950;52.134;5.578;2022-09-09T04:04:58;4.63;;;3.95;;
23720;SDS011;42950;52.134;5.578;2022-09-09T04:07:30;6.35;;;4.20;;
23720;SDS011;42950;52.134;5.578;2022-09-09T04:09:56;5.97;;;4.47;;
23720;SDS011;42950;52.134;5.578;2022-09-09T04:12:22;7.88;;;4.95;;
23720;SDS011;42950;52.134;5.578;2022-09-09T04:14:47;6.32;;;4.80;;
23720;SDS011;42950;52.134;5.578;2022-09-09T04:17:13;6.53;;;4.47;;
23720;SDS011;42950;52.134;5.578;2022-09-09T04:19:39;5.85;;;4.32;;
23720;SDS011;42950;52.134;5.578;2022-09-09T04:22:04;8.32;;;4.40;;
23720;SDS011;42950;52.134;5.578;2022-09-09T04:24:31;7.78;;;5.18;;
23720;SDS011;42950;52.134;5.578;2022-09-09T04:26:56;6.80;;;4.80;;
23720;SDS011;42950;52.134;5.578;2022-09-09T04:29:22;6.68;;;4.50;;
23720;SDS011;42950;52.134;5.578;2022-09-09T04:31:48;8.82;;;4.32;;
23720;SDS011;42950;52.134;5.578;2022-09-09T04:34:13;6.28;;;4.95;;
23720;SDS011;42950;52.134;5.578;2022-09-09T04:36:39;5.57;;;4.50;;
23720;SDS011;42950;52.134;5.578;2022-09-09T04:39:05;7.57;;;4.47;;
23720;SDS011;42950;52.134;5.578;2022-09-09T04:41:31;9.23;;;4.80;;
23720;SDS011;42950;52.134;5.578;2022-09-09T04:43:57;5.15;;;4.40;;
23720;SDS011;42950;52.134;5.578;2022-09-09T04:46:23;5.38;;;4.40;;
23720;SDS011;42950;52.134;5.578;2022-09-09T04:48:50;7.30;;;4.53;;
23720;SDS011;42950;52.134;5.578;2022-09-09T04:51:17;9.32;;;4.55;;
23720;SDS011;42950;52.134;5.578;2022-09-09T04:53:42;6.22;;;4.72;;
23720;SDS011;42950;52.134;5.578;2022-09-09T04:56:12;6.07;;;4.82;;
23720;SDS011;42950;52.134;5.578;2022-09-09T04:58:41;9.43;;;4.97;;
23720;SDS011;42950;52.134;5.578;2022-09-09T05:01:29;5.32;;;4.75;;
23720;SDS011;42950;52.134;5.578;2022-09-09T05:03:54;7.20;;;4.35;;
23720;SDS011;42950;52.134;5.578;2022-09-09T05:06:21;7.00;;;4.40;;
23720;SDS011;42950;52.134;5.578;2022-09-09T05:08:47;6.13;;;4.18;;
23720;SDS011;42950;52.134;5.578;2022-09-09T05:13:44;8.98;;;3.92;;
23720;SDS011;42950;52.134;5.578;2022-09-09T05:16:11;8.65;;;4.10;;
23720;SDS011;42950;52.134;5.578;2022-09-09T05:18:38;4.72;;;3.92;;
23720;SDS011;42950;52.134;5.578;2022-09-09T05:21:04;9.82;;;4.70;;
23720;SDS011;42950;52.134;5.578;2022-09-09T05:23:31;6.70;;;4.40;;
23720;SDS011;42950;52.134;5.578;2022-09-09T05:25:59;7.82;;;4.53;;
23720;SDS011;42950;52.134;5.578;2022-09-09T05:28:25;10.10;;;4.18;;
23720;SDS011;42950;52.134;5.578;2022-09-09T05:31:01;6.57;;;4.22;;
23720;SDS011;42950;52.134;5.578;2022-09-09T05:33:33;6.90;;;3.92;;
23720;SDS011;42950;52.134;5.578;2022-09-09T05:36:10;10.38;;;4.53;;
23720;SDS011;42950;52.134;5.578;2022-09-09T05:38:39;10.32;;;4.30;;
23720;SDS011;42950;52.134;5.578;2022-09-09T05:41:08;6.63;;;3.67;;
23720;SDS011;42950;52.134;5.578;2022-09-09T05:43:36;9.00;;;3.97;;
23720;SDS011;42950;52.134;5.578;2022-09-09T05:46:22;7.47;;;3.97;;
23720;SDS011;42950;52.134;5.578;2022-09-09T05:48:50;5.45;;;3.65;;
23720;SDS011;42950;52.134;5.578;2022-09-09T05:51:18;11.18;;;4.22;;
23720;SDS011;42950;52.134;5.578;2022-09-09T05:53:47;7.97;;;3.88;;
23720;SDS011;42950;52.134;5.578;2022-09-09T05:56:17;14.27;;;4.05;;
23720;SDS011;42950;52.134;5.578;2022-09-09T05:58:45;9.75;;;3.85;;
23720;SDS011;42950;52.134;5.578;2022-09-09T06:01:15;9.80;;;4.05;;
23720;SDS011;42950;52.134;5.578;2022-09-09T06:03:43;8.38;;;3.55;;
23720;SDS011;42950;52.134;5.578;2022-09-09T06:06:12;9.38;;;3.90;;
23720;SDS011;42950;52.134;5.578;2022-09-09T06:08:43;9.85;;;3.92;;
23720;SDS011;42950;52.134;5.578;2022-09-09T06:11:20;6.22;;;3.50;;
23720;SDS011;42950;52.134;5.578;2022-09-09T06:13:51;8.93;;;2.90;;
23720;SDS011;42950;52.134;5.578;2022-09-09T06:16:19;9.00;;;3.38;;
23720;SDS011;42950;52.134;5.578;2022-09-09T06:18:49;7.18;;;3.47;;
23720;SDS011;42950;52.134;5.578;2022-09-09T06:21:23;7.28;;;3.60;;
23720;SDS011;42950;52.134;5.578;2022-09-09T06:23:50;8.35;;;3.20;;
23720;SDS011;42950;52.134;5.578;2022-09-09T06:26:20;8.45;;;3.60;;
23720;SDS011;42950;52.134;5.578;2022-09-09T06:28:48;10.18;;;3.20;;
23720;SDS011;42950;52.134;5.578;2022-09-09T06:31:16;14.98;;;3.90;;
23720;SDS011;42950;52.134;5.578;2022-09-09T06:33:53;6.90;;;3.22;;
23720;SDS011;42950;52.134;5.578;2022-09-09T06:36:33;5.88;;;3.35;;
23720;SDS011;42950;52.134;5.578;2022-09-09T06:39:03;7.30;;;3.58;;
23720;SDS011;42950;52.134;5.578;2022-09-09T06:41:30;8.52;;;3.55;;
23720;SDS011;42950;52.134;5.578;2022-09-09T06:43:58;6.00;;;3.15;;
23720;SDS011;42950;52.134;5.578;2022-09-09T06:46:25;8.30;;;3.13;;
23720;SDS011;42950;52.134;5.578;2022-09-09T06:48:52;7.53;;;3.13;;
23720;SDS011;42950;52.134;5.578;2022-09-09T06:51:24;6.78;;;3.22;;
23720;SDS011;42950;52.134;5.578;2022-09-09T06:53:58;10.00;;;3.60;;
23720;SDS011;42950;52.134;5.578;2022-09-09T06:56:29;9.77;;;3.33;;
23720;SDS011;42950;52.134;5.578;2022-09-09T06:59:03;8.20;;;2.70;;
23720;SDS011;42950;52.134;5.578;2022-09-09T07:01:36;12.48;;;3.13;;
23720;SDS011;42950;52.134;5.578;2022-09-09T07:04:05;7.50;;;3.05;;
23720;SDS011;42950;52.134;5.578;2022-09-09T07:06:50;10.10;;;3.20;;
23720;SDS011;42950;52.134;5.578;2022-09-09T07:09:17;8.90;;;2.90;;
23720;SDS011;42950;52.134;5.578;2022-09-09T07:11:46;6.10;;;3.03;;
23720;SDS011;42950;52.134;5.578;2022-09-09T07:14:14;16.17;;;3.53;;
23720;SDS011;42950;52.134;5.578;2022-09-09T07:16:41;9.73;;;3.15;;
23720;SDS011;42950;52.134;5.578;2022-09-09T07:19:07;10.32;;;3.45;;
23720;SDS011;42950;52.134;5.578;2022-09-09T07:21:33;7.88;;;2.60;;
23720;SDS011;42950;52.134;5.578;2022-09-09T07:24:00;10.10;;;2.97;;
23720;SDS011;42950;52.134;5.578;2022-09-09T07:26:27;14.02;;;3.38;;
23720;SDS011;42950;52.134;5.578;2022-09-09T07:28:55;8.30;;;2.58;;
23720;SDS011;42950;52.134;5.578;2022-09-09T07:31:23;13.00;;;3.22;;
23720;SDS011;42950;52.134;5.578;2022-09-09T07:33:57;11.73;;;3.03;;
23720;SDS011;42950;52.134;5.578;2022-09-09T07:36:25;8.38;;;2.78;;
23720;SDS011;42950;52.134;5.578;2022-09-09T07:38:52;9.50;;;2.85;;
23720;SDS011;42950;52.134;5.578;2022-09-09T07:41:20;8.85;;;2.83;;
23720;SDS011;42950;52.134;5.578;2022-09-09T07:43:49;10.90;;;2.85;;
23720;SDS011;42950;52.134;5.578;2022-09-09T07:46:16;8.60;;;2.72;;
23720;SDS011;42950;52.134;5.578;2022-09-09T07:48:46;8.07;;;2.63;;
23720;SDS011;42950;52.134;5.578;2022-09-09T07:51:18;7.95;;;2.60;;
23720;SDS011;42950;52.134;5.578;2022-09-09T07:53:47;9.98;;;3.20;;
23720;SDS011;42950;52.134;5.578;2022-09-09T07:56:14;13.00;;;2.80;;
23720;SDS011;42950;52.134;5.578;2022-09-09T07:58:46;10.35;;;2.35;;
23720;SDS011;42950;52.134;5.578;2022-09-09T08:01:14;9.05;;;2.75;;
23720;SDS011;42950;52.134;5.578;2022-09-09T08:03:42;9.00;;;2.42;;
23720;SDS011;42950;52.134;5.578;2022-09-09T08:06:09;4.78;;;2.20;;
23720;SDS011;42950;52.134;5.578;2022-09-09T08:08:37;7.60;;;3.00;;
23720;SDS011;42950;52.134;5.578;2022-09-09T08:13:39;8.02;;;2.03;;
23720;SDS011;42950;52.134;5.578;2022-09-09T08:16:11;9.38;;;2.53;;
23720;SDS011;42950;52.134;5.578;2022-09-09T08:18:38;13.75;;;2.85;;
23720;SDS011;42950;52.134;5.578;2022-09-09T08:21:05;10.35;;;2.78;;
23720;SDS011;42950;52.134;5.578;2022-09-09T08:23:40;9.70;;;2.30;;
23720;SDS011;42950;52.134;5.578;2022-09-09T08:26:16;7.90;;;2.33;;
23720;SDS011;42950;52.134;5.578;2022-09-09T08:28:47;8.43;;;2.75;;
23720;SDS011;42950;52.134;5.578;2022-09-09T08:31:16;10.30;;;2.70;;
23720;SDS011;42950;52.134;5.578;2022-09-09T08:33:47;8.18;;;2.15;;
23720;SDS011;42950;52.134;5.578;2022-09-09T08:36:13;9.25;;;2.47;;
23720;SDS011;42950;52.134;5.578;2022-09-09T08:38:47;6.95;;;1.92;;
23720;SDS011;42950;52.134;5.578;2022-09-09T08:44:02;8.75;;;2.15;;
23720;SDS011;42950;52.134;5.578;2022-09-09T08:54:55;8.43;;;1.95;;
23720;SDS011;42950;52.134;5.578;2022-09-09T08:57:25;8.43;;;2.20;;
23720;SDS011;42950;52.134;5.578;2022-09-09T08:59:54;9.05;;;2.17;;
23720;SDS011;42950;52.134;5.578;2022-09-09T09:02:24;8.68;;;2.08;;
23720;SDS011;42950;52.134;5.578;2022-09-09T09:07:46;7.03;;;1.98;;
23720;SDS011;42950;52.134;5.578;2022-09-09T09:10:46;8.98;;;2.00;;
23720;SDS011;42950;52.134;5.578;2022-09-09T09:13:38;8.82;;;2.00;;
23720;SDS011;42950;52.134;5.578;2022-09-09T09:18:48;5.72;;;1.80;;
23720;SDS011;42950;52.134;5.578;2022-09-09T09:21:17;6.80;;;1.85;;
23720;SDS011;42950;52.134;5.578;2022-09-09T09:23:58;6.43;;;1.95;;
23720;SDS011;42950;52.134;5.578;2022-09-09T09:26:25;6.13;;;1.70;;
23720;SDS011;42950;52.134;5.578;2022-09-09T09:29:01;7.53;;;1.95;;
23720;SDS011;42950;52.134;5.578;2022-09-09T09:31:34;7.60;;;1.80;;
23720;SDS011;42950;52.134;5.578;2022-09-09T09:34:00;6.07;;;1.95;;
23720;SDS011;42950;52.134;5.578;2022-09-09T09:36:33;7.07;;;1.85;;
23720;SDS011;42950;52.134;5.578;2022-09-09T09:39:09;9.82;;;2.20;;
23720;SDS011;42950;52.134;5.578;2022-09-09T09:44:02;10.88;;;2.00;;
23720;SDS011;42950;52.134;5.578;2022-09-09T09:46:29;8.40;;;2.00;;
23720;SDS011;42950;52.134;5.578;2022-09-09T09:49:02;7.70;;;2.28;;
23720;SDS011;42950;52.134;5.578;2022-09-09T09:51:30;10.57;;;2.22;;
23720;SDS011;42950;52.134;5.578;2022-09-09T09:56:38;4.78;;;1.40;;
23720;SDS011;42950;52.134;5.578;2022-09-09T09:59:05;7.65;;;1.75;;
23720;SDS011;42950;52.134;5.578;2022-09-09T10:02:15;5.05;;;1.70;;
23720;SDS011;42950;52.134;5.578;2022-09-09T10:04:43;8.60;;;2.00;;
23720;SDS011;42950;52.134;5.578;2022-09-09T10:07:17;7.72;;;1.83;;
23720;SDS011;42950;52.134;5.578;2022-09-09T10:09:46;7.25;;;1.77;;
23720;SDS011;42950;52.134;5.578;2022-09-09T10:15:07;9.70;;;2.05;;
23720;SDS011;42950;52.134;5.578;2022-09-09T10:20:43;10.52;;;2.30;;
23720;SDS011;42950;52.134;5.578;2022-09-09T10:26:10;8.55;;;2.17;;
23720;SDS011;42950;52.134;5.578;2022-09-09T10:35:34;8.05;;;1.70;;
23720;SDS011;42950;52.134;5.578;2022-09-09T10:37:37;10.75;;;2.17;;
23720;SDS011;42950;52.134;5.578;2022-09-09T10:48:56;8.10;;;1.80;;
23720;SDS011;42950;52.134;5.578;2022-09-09T10:51:34;7.10;;;2.22;;
23720;SDS011;42950;52.134;5.578;2022-09-09T10:54:27;7.55;;;2.08;;
23720;SDS011;42950;52.134;5.578;2022-09-09T10:56:57;7.28;;;1.88;;
23720;SDS011;42950;52.134;5.578;2022-09-09T10:59:31;4.38;;;1.60;;
23720;SDS011;42950;52.134;5.578;2022-09-09T11:07:28;8.70;;;2.35;;
23720;SDS011;42950;52.134;5.578;2022-09-09T11:10:02;9.02;;;2.10;;
23720;SDS011;42950;52.134;5.578;2022-09-09T11:12:42;7.72;;;2.50;;
23720;SDS011;42950;52.134;5.578;2022-09-09T11:15:15;7.85;;;2.40;;
23720;SDS011;42950;52.134;5.578;2022-09-09T11:17:53;7.78;;;2.40;;
23720;SDS011;42950;52.134;5.578;2022-09-09T11:20:23;7.18;;;2.67;;
23720;SDS011;42950;52.134;5.578;2022-09-09T11:22:55;7.55;;;2.42;;
23720;SDS011;42950;52.134;5.578;2022-09-09T11:25:46;7.10;;;2.65;;
23720;SDS011;42950;52.134;5.578;2022-09-09T11:36:35;8.07;;;2.45;;
23720;SDS011;42950;52.134;5.578;2022-09-09T11:39:23;7.75;;;2.80;;
23720;SDS011;42950;52.134;5.578;2022-09-09T11:42:37;9.15;;;3.00;;
23720;SDS011;42950;52.134;5.578;2022-09-09T11:44:45;6.70;;;2.03;;
23720;SDS011;42950;52.134;5.578;2022-09-09T11:47:24;7.28;;;2.17;;
23720;SDS011;42950;52.134;5.578;2022-09-09T11:50:40;9.57;;;2.40;;
23720;SDS011;42950;52.134;5.578;2022-09-09T11:55:32;7.38;;;2.40;;
23720;SDS011;42950;52.134;5.578;2022-09-09T12:00:46;7.90;;;2.50;;
23720;SDS011;42950;52.134;5.578;2022-09-09T12:03:31;8.77;;;2.45;;
23720;SDS011;42950;52.134;5.578;2022-09-09T12:06:19;7.40;;;2.38;;
23720;SDS011;42950;52.134;5.578;2022-09-09T12:09:37;8.88;;;2.28;;
23720;SDS011;42950;52.134;5.578;2022-09-09T12:11:52;7.07;;;2.00;;
23720;SDS011;42950;52.134;5.578;2022-09-09T12:14:38;8.25;;;2.15;;
23720;SDS011;42950;52.134;5.578;2022-09-09T12:20:12;6.18;;;1.85;;
23720;SDS011;42950;52.134;5.578;2022-09-09T12:28:58;5.88;;;1.90;;
23720;SDS011;42950;52.134;5.578;2022-09-09T12:31:05;5.32;;;2.13;;
23720;SDS011;42950;52.134;5.578;2022-09-09T12:33:36;6.05;;;1.98;;
23720;SDS011;42950;52.134;5.578;2022-09-09T12:36:05;4.70;;;2.00;;
23720;SDS011;42950;52.134;5.578;2022-09-09T12:38:38;5.38;;;2.00;;
23720;SDS011;42950;52.134;5.578;2022-09-09T12:41:05;4.70;;;2.05;;
23720;SDS011;42950;52.134;5.578;2022-09-09T12:43:31;3.67;;;1.77;;
23720;SDS011;42950;52.134;5.578;2022-09-09T12:46:01;7.43;;;2.25;;
23720;SDS011;42950;52.134;5.578;2022-09-09T12:48:35;6.13;;;2.30;;
23720;SDS011;42950;52.134;5.578;2022-09-09T12:51:03;7.60;;;2.28;;
23720;SDS011;42950;52.134;5.578;2022-09-09T12:53:33;5.90;;;2.28;;
23720;SDS011;42950;52.134;5.578;2022-09-09T12:56:07;8.80;;;2.42;;
23720;SDS011;42950;52.134;5.578;2022-09-09T12:58:35;4.68;;;1.80;;
23720;SDS011;42950;52.134;5.578;2022-09-09T13:01:03;6.40;;;2.47;;
23720;SDS011;42950;52.134;5.578;2022-09-09T13:03:30;5.97;;;2.40;;
23720;SDS011;42950;52.134;5.578;2022-09-09T13:05:58;6.07;;;1.98;;
23720;SDS011;42950;52.134;5.578;2022-09-09T13:08:36;3.25;;;1.70;;
23720;SDS011;42950;52.134;5.578;2022-09-09T13:11:03;6.82;;;2.38;;
23720;SDS011;42950;52.134;5.578;2022-09-09T13:13:37;5.47;;;2.20;;
23720;SDS011;42950;52.134;5.578;2022-09-09T13:16:18;5.05;;;1.67;;
23720;SDS011;42950;52.134;5.578;2022-09-09T13:18:56;4.22;;;1.98;;
23720;SDS011;42950;52.134;5.578;2022-09-09T13:21:39;6.28;;;2.05;;
23720;SDS011;42950;52.134;5.578;2022-09-09T13:24:05;5.55;;;2.10;;
23720;SDS011;42950;52.134;5.578;2022-09-09T13:27:02;5.57;;;2.28;;
23720;SDS011;42950;52.134;5.578;2022-09-09T13:29:30;5.88;;;2.03;;
23720;SDS011;42950;52.134;5.578;2022-09-09T13:32:04;11.35;;;2.30;;
23720;SDS011;42950;52.134;5.578;2022-09-09T13:34:32;4.72;;;2.03;;
23720;SDS011;42950;52.134;5.578;2022-09-09T13:36:59;6.35;;;2.20;;
23720;SDS011;42950;52.134;5.578;2022-09-09T13:39:27;6.25;;;2.13;;
23720;SDS011;42950;52.134;5.578;2022-09-09T13:41:53;4.97;;;2.20;;
23720;SDS011;42950;52.134;5.578;2022-09-09T13:44:38;4.28;;;2.08;;
23720;SDS011;42950;52.134;5.578;2022-09-09T13:47:19;6.85;;;2.10;;
23720;SDS011;42950;52.134;5.578;2022-09-09T13:49:46;5.20;;;2.05;;
23720;SDS011;42950;52.134;5.578;2022-09-09T13:52:14;5.22;;;2.00;;
23720;SDS011;42950;52.134;5.578;2022-09-09T13:54:42;6.38;;;2.38;;
23720;SDS011;42950;52.134;5.578;2022-09-09T13:57:20;4.78;;;1.90;;
23720;SDS011;42950;52.134;5.578;2022-09-09T13:59:47;5.55;;;2.47;;
23720;SDS011;42950;52.134;5.578;2022-09-09T14:02:14;6.53;;;2.95;;
23720;SDS011;42950;52.134;5.578;2022-09-09T14:04:42;7.70;;;3.13;;
23720;SDS011;42950;52.134;5.578;2022-09-09T14:07:09;8.02;;;2.35;;
23720;SDS011;42950;52.134;5.578;2022-09-09T14:09:41;5.72;;;2.13;;
23720;SDS011;42950;52.134;5.578;2022-09-09T14:12:13;6.55;;;2.60;;
23720;SDS011;42950;52.134;5.578;2022-09-09T14:14:41;5.90;;;2.58;;
23720;SDS011;42950;52.134;5.578;2022-09-09T14:17:08;6.78;;;2.63;;
23720;SDS011;42950;52.134;5.578;2022-09-09T14:19:34;4.28;;;2.22;;
23720;SDS011;42950;52.134;5.578;2022-09-09T14:22:02;6.20;;;2.45;;
23720;SDS011;42950;52.134;5.578;2022-09-09T14:24:27;7.40;;;2.30;;
23720;SDS011;42950;52.134;5.578;2022-09-09T14:26:54;6.47;;;1.95;;
23720;SDS011;42950;52.134;5.578;2022-09-09T14:29:20;8.05;;;2.00;;
23720;SDS011;42950;52.134;5.578;2022-09-09T14:31:45;3.00;;;1.90;;
23720;SDS011;42950;52.134;5.578;2022-09-09T14:34:12;4.65;;;1.60;;
23720;SDS011;42950;52.134;5.578;2022-09-09T14:36:40;3.47;;;2.00;;
23720;SDS011;42950;52.134;5.578;2022-09-09T14:39:06;4.68;;;1.85;;
23720;SDS011;42950;52.134;5.578;2022-09-09T14:41:33;7.70;;;1.83;;
23720;SDS011;42950;52.134;5.578;2022-09-09T14:43:59;4.45;;;1.60;;
23720;SDS011;42950;52.134;5.578;2022-09-09T14:46:25;5.07;;;2.00;;
23720;SDS011;42950;52.134;5.578;2022-09-09T14:48:52;5.40;;;1.70;;
23720;SDS011;42950;52.134;5.578;2022-09-09T14:51:19;6.13;;;2.00;;
23720;SDS011;42950;52.134;5.578;2022-09-09T14:53:47;4.05;;;1.63;;
23720;SDS011;42950;52.134;5.578;2022-09-09T14:56:16;5.03;;;1.60;;
23720;SDS011;42950;52.134;5.578;2022-09-09T14:58:43;4.95;;;1.70;;
23720;SDS011;42950;52.134;5.578;2022-09-09T15:01:15;6.15;;;2.00;;
23720;SDS011;42950;52.134;5.578;2022-09-09T15:03:47;5.60;;;2.28;;
23720;SDS011;42950;52.134;5.578;2022-09-09T15:06:19;6.65;;;2.30;;
23720;SDS011;42950;52.134;5.578;2022-09-09T15:08:46;7.32;;;2.63;;
23720;SDS011;42950;52.134;5.578;2022-09-09T15:11:15;6.82;;;2.40;;
23720;SDS011;42950;52.134;5.578;2022-09-09T15:13:41;8.70;;;2.30;;
23720;SDS011;42950;52.134;5.578;2022-09-09T15:16:09;4.30;;;2.08;;
23720;SDS011;42950;52.134;5.578;2022-09-09T15:18:37;3.20;;;1.60;;
23720;SDS011;42950;52.134;5.578;2022-09-09T15:21:10;6.80;;;2.60;;
23720;SDS011;42950;52.134;5.578;2022-09-09T15:23:36;6.72;;;4.30;;
23720;SDS011;42950;52.134;5.578;2022-09-09T15:26:02;7.45;;;2.13;;
23720;SDS011;42950;52.134;5.578;2022-09-09T15:28:30;5.70;;;1.90;;
23720;SDS011;42950;52.134;5.578;2022-09-09T15:30:59;3.10;;;1.52;;
23720;SDS011;42950;52.134;5.578;2022-09-09T15:33:36;3.75;;;1.50;;
23720;SDS011;42950;52.134;5.578;2022-09-09T15:41:14;2.78;;;1.38;;
23720;SDS011;42950;52.134;5.578;2022-09-09T15:43:44;2.22;;;1.13;;
23720;SDS011;42950;52.134;5.578;2022-09-09T15:48:43;2.85;;;0.82;;
23720;SDS011;42950;52.134;5.578;2022-09-09T15:51:10;1.73;;;0.90;;
23720;SDS011;42950;52.134;5.578;2022-09-09T15:53:37;3.35;;;0.80;;
23720;SDS011;42950;52.134;5.578;2022-09-09T15:56:05;3.42;;;1.23;;
23720;SDS011;42950;52.134;5.578;2022-09-09T15:58:34;4.03;;;1.17;;
23720;SDS011;42950;52.134;5.578;2022-09-09T16:03:40;3.72;;;1.13;;
23720;SDS011;42950;52.134;5.578;2022-09-09T16:06:07;3.20;;;1.10;;
23720;SDS011;42950;52.134;5.578;2022-09-09T16:08:35;3.70;;;1.40;;
23720;SDS011;42950;52.134;5.578;2022-09-09T16:11:15;2.60;;;1.10;;
23720;SDS011;42950;52.134;5.578;2022-09-09T16:13:45;3.05;;;1.50;;
23720;SDS011;42950;52.134;5.578;2022-09-09T16:16:14;4.63;;;1.33;;
23720;SDS011;42950;52.134;5.578;2022-09-09T16:18:42;3.80;;;1.40;;
23720;SDS011;42950;52.134;5.578;2022-09-09T16:21:52;3.88;;;1.27;;
23720;SDS011;42950;52.134;5.578;2022-09-09T16:24:01;3.88;;;1.40;;
23720;SDS011;42950;52.134;5.578;2022-09-09T16:26:28;6.38;;;1.52;;
23720;SDS011;42950;52.134;5.578;2022-09-09T16:28:56;3.92;;;1.17;;
23720;SDS011;42950;52.134;5.578;2022-09-09T16:31:24;3.55;;;1.20;;
23720;SDS011;42950;52.134;5.578;2022-09-09T16:33:51;1.90;;;1.20;;
23720;SDS011;42950;52.134;5.578;2022-09-09T16:36:21;4.53;;;1.60;;
23720;SDS011;42950;52.134;5.578;2022-09-09T16:38:51;4.20;;;1.55;;
23720;SDS011;42950;52.134;5.578;2022-09-09T16:41:19;5.07;;;1.52;;
23720;SDS011;42950;52.134;5.578;2022-09-09T16:43:45;3.88;;;1.40;;
23720;SDS011;42950;52.134;5.578;2022-09-09T16:46:15;4.40;;;1.55;;
23720;SDS011;42950;52.134;5.578;2022-09-09T16:48:43;2.80;;;1.73;;
23720;SDS011;42950;52.134;5.578;2022-09-09T16:51:12;6.18;;;1.98;;
23720;SDS011;42950;52.134;5.578;2022-09-09T16:53:40;5.28;;;1.90;;
23720;SDS011;42950;52.134;5.578;2022-09-09T16:56:10;2.50;;;1.80;;
23720;SDS011;42950;52.134;5.578;2022-09-09T16:58:37;4.28;;;2.17;;
23720;SDS011;42950;52.134;5.578;2022-09-09T17:01:03;2.88;;;1.70;;
23720;SDS011;42950;52.134;5.578;2022-09-09T17:03:29;4.28;;;1.85;;
23720;SDS011;42950;52.134;5.578;2022-09-09T17:05:56;3.30;;;1.65;;
23720;SDS011;42950;52.134;5.578;2022-09-09T17:08:23;3.42;;;1.80;;
23720;SDS011;42950;52.134;5.578;2022-09-09T17:10:48;4.32;;;1.77;;
23720;SDS011;42950;52.134;5.578;2022-09-09T17:13:15;3.85;;;1.50;;
23720;SDS011;42950;52.134;5.578;2022-09-09T17:15:42;3.38;;;1.65;;
23720;SDS011;42950;52.134;5.578;2022-09-09T17:18:09;5.70;;;1.80;;